EGPH

Edinburgh Airport

Edinburgh, United Kingdom

EGPH 110850Z VRB03KT 9999 FEW039 M05/M06 Q0989

Observed Flight Rules
Dec-11 @ 08:50 UTC (42 minutes ago) Visual Flight Rules
Wind Visibility Clouds
Variable at 3 knots 10,000+ meters
  • Few at 3,900' AGL
Temperatures Readings
Current -5°C / 23°F
Dewpoint -6°C / 21°F
Humidity 93%
Altimeter 29.2" Hg
Pressure 989 hPa
Elevation 41
Observed Flight Rules
Dec-11 @ 08:50 UTC
(42 minutes ago)
VFR
Wind Visibility
Variable at 3 knots 10,000+ meters
Clouds
  • Few at 3,900' AGL
Temperature Dewpoint
-5°C / 23°F -6°C / 21°F
Humidity Altimeter Pressure
93% 29.2" Hg 989 hPa